Time;durP1;ratioP1;P1;durP2;ratioP2;P2;SDS_P1;SDS_P2;PMS_P1;PMS_P2;Temp;Humidity;BMP_temperature;BMP_pressure;BME280_temperature;BME280_humidity;BME280_pressure;Samples;Min_cycle;Max_cycle;Signal;HPM_P1;HPM_P2
2022/01/06 00:00:36;;;;;;;18.37;7.90;;;;;;;;;;5022552;28;20200;-64
2022/01/06 00:03:02;;;;;;;17.40;7.70;;;;;;;;;;5022649;28;20192;-64
2022/01/06 00:05:28;;;;;;;24.97;9.37;;;;;;;;;;5022326;28;20266;-64
2022/01/06 00:07:54;;;;;;;27.37;8.40;;;;;;;;;;5022017;28;20199;-64
2022/01/06 00:10:20;;;;;;;33.97;8.30;;;;;;;;;;5036697;28;20180;-65
2022/01/06 00:13:06;;;;;;;22.80;7.07;;;;;;;;;;5036875;28;20203;-64
2022/01/06 00:15:55;;;;;;;19.83;8.03;;;;;;;;;;5020727;28;20156;-64
2022/01/06 00:18:37;;;;;;;21.40;6.20;;;;;;;;;;5022177;28;20164;-65
2022/01/06 00:23:48;;;;;;;20.83;6.07;;;;;;;;;;5021287;28;20174;-64
2022/01/06 00:26:14;;;;;;;21.43;6.57;;;;;;;;;;5021510;28;20255;-65
2022/01/06 00:28:40;;;;;;;24.50;5.13;;;;;;;;;;5021715;28;20214;-65
2022/01/06 00:31:06;;;;;;;21.17;5.70;;;;;;;;;;5021152;28;20179;-65
2022/01/06 00:33:32;;;;;;;25.50;5.23;;;;;;;;;;5021722;28;20446;-66
2022/01/06 00:35:58;;;;;;;22.33;5.23;;;;;;;;;;5020762;28;20411;-64
2022/01/06 00:38:25;;;;;;;16.57;5.13;;;;;;;;;;5020226;28;20768;-65
2022/01/06 00:40:52;;;;;;;25.33;4.80;;;;;;;;;;5020546;28;20210;-65
2022/01/06 00:43:18;;;;;;;18.67;4.87;;;;;;;;;;5020519;28;20458;-64
2022/01/06 00:45:44;;;;;;;20.77;5.47;;;;;;;;;;5020860;28;20187;-65
2022/01/06 00:48:10;;;;;;;27.27;5.87;;;;;;;;;;5021068;28;20186;-65
2022/01/06 00:50:41;;;;;;;20.60;5.67;;;;;;;;;;5035373;28;20427;-65
2022/01/06 00:53:07;;;;;;;19.63;5.37;;;;;;;;;;5020191;28;20431;-64
2022/01/06 00:55:33;;;;;;;21.23;4.93;;;;;;;;;;5019931;28;20218;-65
2022/01/06 00:58:00;;;;;;;22.27;5.37;;;;;;;;;;5035127;28;20938;-65
2022/01/06 01:00:29;;;;;;;23.83;4.70;;;;;;;;;;5019920;28;20797;-64
2022/01/06 01:02:55;;;;;;;22.87;5.30;;;;;;;;;;5034574;28;20445;-63
2022/01/06 01:05:21;;;;;;;29.10;5.47;;;;;;;;;;5019579;28;20442;-65
2022/01/06 01:07:47;;;;;;;19.93;6.00;;;;;;;;;;5019317;28;20417;-65
2022/01/06 01:10:14;;;;;;;15.63;5.40;;;;;;;;;;5019264;28;20486;-64
2022/01/06 01:12:46;;;;;;;16.57;4.57;;;;;;;;;;5034190;28;20564;-65
2022/01/06 01:15:18;;;;;;;18.73;4.90;;;;;;;;;;5018859;28;20402;-65
2022/01/06 01:17:45;;;;;;;16.33;4.13;;;;;;;;;;5019399;28;20388;-65
2022/01/06 01:20:11;;;;;;;33.70;5.77;;;;;;;;;;5018182;28;20255;-64
2022/01/06 01:22:37;;;;;;;21.23;4.97;;;;;;;;;;5033260;28;20985;-66
2022/01/06 01:25:03;;;;;;;14.47;4.33;;;;;;;;;;5018556;28;20176;-65
2022/01/06 01:27:35;;;;;;;16.13;4.27;;;;;;;;;;5033189;28;20422;-64
2022/01/06 01:30:09;;;;;;;21.60;4.83;;;;;;;;;;5018333;28;20395;-63
2022/01/06 01:32:37;;;;;;;17.77;4.23;;;;;;;;;;5018318;28;20226;-65
2022/01/06 01:35:03;;;;;;;15.97;4.93;;;;;;;;;;5033393;28;20180;-65
2022/01/06 01:37:31;;;;;;;21.13;4.47;;;;;;;;;;5017881;28;20454;-67
2022/01/06 01:39:57;;;;;;;20.33;4.80;;;;;;;;;;5018970;28;20425;-65
2022/01/06 01:42:24;;;;;;;20.07;4.80;;;;;;;;;;5018653;28;20684;-66
2022/01/06 01:44:51;;;;;;;18.53;4.90;;;;;;;;;;5019181;28;20411;-65
2022/01/06 01:47:27;;;;;;;24.23;5.90;;;;;;;;;;5017967;28;20422;-63
2022/01/06 01:49:58;;;;;;;25.60;4.87;;;;;;;;;;5018531;28;20860;-64
2022/01/06 01:52:24;;;;;;;19.07;4.93;;;;;;;;;;5018700;28;20437;-65
2022/01/06 01:54:50;;;;;;;21.43;5.03;;;;;;;;;;5018749;28;20498;-64
2022/01/06 01:57:16;;;;;;;26.10;5.87;;;;;;;;;;5018127;28;20190;-65
2022/01/06 01:59:44;;;;;;;24.23;7.17;;;;;;;;;;5033233;28;20247;-65
2022/01/06 02:02:10;;;;;;;21.10;7.80;;;;;;;;;;5017457;28;20637;-65
2022/01/06 02:04:36;;;;;;;19.57;5.27;;;;;;;;;;5017734;28;20190;-71
2022/01/06 02:07:03;;;;;;;17.67;4.33;;;;;;;;;;5017457;28;20296;-65
2022/01/06 02:09:29;;;;;;;19.47;4.37;;;;;;;;;;5032759;28;20180;-63
2022/01/06 02:11:55;;;;;;;16.40;4.07;;;;;;;;;;5017143;28;20489;-65
2022/01/06 02:14:21;;;;;;;14.77;3.67;;;;;;;;;;5017753;28;20180;-65
2022/01/06 02:16:47;;;;;;;17.00;3.87;;;;;;;;;;5032575;28;20194;-65
2022/01/06 02:19:13;;;;;;;23.93;6.00;;;;;;;;;;5017275;28;20176;-65
2022/01/06 02:21:42;;;;;;;15.60;4.00;;;;;;;;;;5017691;28;21021;-65
2022/01/06 02:24:08;;;;;;;18.50;4.77;;;;;;;;;;5032237;28;20176;-63
2022/01/06 02:26:34;;;;;;;15.73;3.80;;;;;;;;;;5018453;28;20414;-65
2022/01/06 02:29:00;;;;;;;23.13;4.50;;;;;;;;;;5017800;28;20175;-64
2022/01/06 02:31:26;;;;;;;20.13;4.07;;;;;;;;;;5018533;28;20270;-65
2022/01/06 02:33:52;;;;;;;20.13;4.07;;;;;;;;;;5017134;28;20184;-66
2022/01/06 02:36:19;;;;;;;25.47;3.70;;;;;;;;;;5033390;28;20560;-65
2022/01/06 02:38:45;;;;;;;13.00;3.27;;;;;;;;;;5033152;28;20498;-65
2022/01/06 02:41:12;;;;;;;15.73;4.37;;;;;;;;;;5017861;28;21041;-64
2022/01/06 02:43:38;;;;;;;17.60;4.57;;;;;;;;;;5033456;28;20195;-64
2022/01/06 02:46:04;;;;;;;15.83;3.93;;;;;;;;;;5017556;28;20435;-65
2022/01/06 02:48:31;;;;;;;17.70;4.40;;;;;;;;;;5018586;28;20915;-66
2022/01/06 02:50:56;;;;;;;22.73;4.20;;;;;;;;;;5042224;23;20210;31
2022/01/06 02:53:22;;;;;;;23.17;5.43;;;;;;;;;;5032510;28;21013;-64
2022/01/06 02:55:50;;;;;;;14.03;3.40;;;;;;;;;;5033840;28;20184;-64
2022/01/06 02:58:20;;;;;;;19.17;4.30;;;;;;;;;;5034333;28;20668;-64
2022/01/06 03:00:46;;;;;;;17.03;4.20;;;;;;;;;;5037297;28;20446;-63
2022/01/06 03:03:12;;;;;;;15.10;3.57;;;;;;;;;;5037194;28;20810;-64
2022/01/06 03:05:39;;;;;;;14.77;3.13;;;;;;;;;;5037096;28;20410;-65
2022/01/06 03:08:05;;;;;;;16.57;3.90;;;;;;;;;;5037256;28;20187;-64
2022/01/06 03:10:35;;;;;;;17.57;3.70;;;;;;;;;;5037696;28;20414;-64
2022/01/06 03:13:01;;;;;;;12.83;3.27;;;;;;;;;;5035807;28;20441;-64
2022/01/06 03:15:27;;;;;;;8.30;3.37;;;;;;;;;;5037126;28;20410;-65
2022/01/06 03:17:55;;;;;;;25.73;5.30;;;;;;;;;;5037216;28;20190;-65
2022/01/06 03:20:23;;;;;;;15.77;4.30;;;;;;;;;;5035600;28;20274;-65
2022/01/06 03:22:49;;;;;;;13.93;3.73;;;;;;;;;;5035729;28;20444;-64
2022/01/06 03:25:15;;;;;;;14.47;3.23;;;;;;;;;;5035784;28;20508;-65
2022/01/06 03:27:42;;;;;;;16.10;3.37;;;;;;;;;;5035614;28;20624;-64
2022/01/06 03:30:09;;;;;;;16.03;4.00;;;;;;;;;;5035475;28;20422;-65
2022/01/06 03:32:35;;;;;;;9.83;3.30;;;;;;;;;;5035516;28;20473;-64
2022/01/06 03:35:01;;;;;;;19.47;4.10;;;;;;;;;;5036791;28;20837;-65
2022/01/06 03:37:27;;;;;;;17.57;4.40;;;;;;;;;;5036951;28;20242;-64
2022/01/06 03:39:53;;;;;;;13.27;3.20;;;;;;;;;;5035421;28;20188;-65
2022/01/06 03:42:19;;;;;;;25.00;4.53;;;;;;;;;;5036661;28;20282;-65
2022/01/06 03:44:45;;;;;;;13.73;4.10;;;;;;;;;;5036499;28;20190;-65
2022/01/06 03:47:11;;;;;;;18.23;3.70;;;;;;;;;;5037088;28;20515;-64
2022/01/06 03:49:37;;;;;;;19.00;4.13;;;;;;;;;;5035252;28;20925;-65
2022/01/06 03:52:04;;;;;;;16.37;5.33;;;;;;;;;;5036181;28;20442;-64
2022/01/06 03:54:30;;;;;;;15.13;3.97;;;;;;;;;;5036588;28;20179;-65
2022/01/06 03:56:57;;;;;;;13.23;3.50;;;;;;;;;;5035358;28;20497;-65
2022/01/06 03:59:23;;;;;;;10.10;3.23;;;;;;;;;;5036660;28;20850;-65
2022/01/06 04:01:49;;;;;;;18.07;4.27;;;;;;;;;;5035993;28;20554;-65
2022/01/06 04:04:15;;;;;;;16.43;3.63;;;;;;;;;;5036599;28;20183;-65
2022/01/06 04:06:41;;;;;;;15.17;3.57;;;;;;;;;;5036470;28;20171;-65
2022/01/06 04:09:07;;;;;;;14.60;4.13;;;;;;;;;;5036188;28;20604;-65
2022/01/06 04:11:33;;;;;;;19.97;4.47;;;;;;;;;;5033649;28;20430;-65
2022/01/06 04:13:59;;;;;;;21.67;4.07;;;;;;;;;;5036544;28;20785;-65
2022/01/06 04:16:26;;;;;;;15.13;3.73;;;;;;;;;;5035941;28;20186;-65
2022/01/06 04:18:52;;;;;;;20.03;3.50;;;;;;;;;;5036217;28;20183;-65
2022/01/06 04:21:18;;;;;;;14.87;2.77;;;;;;;;;;5034580;28;20461;-64
2022/01/06 04:23:47;;;;;;;12.70;3.47;;;;;;;;;;5034925;28;20421;-65
2022/01/06 04:26:13;;;;;;;17.80;3.57;;;;;;;;;;5035778;28;20168;-64
2022/01/06 04:28:40;;;;;;;24.60;4.33;;;;;;;;;;5034645;28;20414;-65
2022/01/06 04:31:06;;;;;;;17.47;3.27;;;;;;;;;;5036011;28;20413;-67
2022/01/06 04:33:33;;;;;;;14.03;3.57;;;;;;;;;;5034551;28;20422;-65
2022/01/06 04:35:59;;;;;;;14.27;3.50;;;;;;;;;;5035814;28;20187;-65
2022/01/06 04:38:26;;;;;;;13.70;2.97;;;;;;;;;;5035744;28;20422;-64
2022/01/06 04:40:52;;;;;;;11.17;3.40;;;;;;;;;;5035755;28;20548;-65
2022/01/06 04:43:18;;;;;;;12.03;3.17;;;;;;;;;;5034130;28;20457;-65
2022/01/06 04:45:44;;;;;;;17.00;3.97;;;;;;;;;;5035662;28;20546;-65
2022/01/06 04:48:10;;;;;;;15.73;3.97;;;;;;;;;;5035689;28;20414;-65
2022/01/06 04:50:36;;;;;;;18.27;3.30;;;;;;;;;;5035840;28;20410;-65
2022/01/06 04:53:02;;;;;;;13.93;3.60;;;;;;;;;;5035246;28;20448;-65
2022/01/06 04:55:28;;;;;;;17.63;3.30;;;;;;;;;;5034340;28;20180;-65
2022/01/06 04:57:54;;;;;;;15.40;3.87;;;;;;;;;;5034308;28;20513;-65
2022/01/06 05:00:20;;;;;;;18.00;4.00;;;;;;;;;;5034072;28;20237;-65
2022/01/06 05:02:46;;;;;;;17.17;4.13;;;;;;;;;;5035238;28;20281;-66
2022/01/06 05:05:13;;;;;;;15.23;3.50;;;;;;;;;;5035530;28;20448;-65
2022/01/06 05:07:40;;;;;;;20.10;4.00;;;;;;;;;;5034159;28;20210;-65
2022/01/06 05:10:06;;;;;;;19.37;4.00;;;;;;;;;;5035074;28;20956;-65
2022/01/06 05:12:33;;;;;;;17.67;3.90;;;;;;;;;;5034910;28;20921;-64
2022/01/06 05:14:59;;;;;;;24.00;3.30;;;;;;;;;;5033786;28;20422;-65
2022/01/06 05:17:26;;;;;;;20.97;3.77;;;;;;;;;;5035065;28;20500;-65
2022/01/06 05:19:52;;;;;;;19.70;3.33;;;;;;;;;;5035342;28;20512;-65
2022/01/06 05:22:18;;;;;;;18.47;3.40;;;;;;;;;;5034443;28;21002;-65
2022/01/06 05:24:44;;;;;;;18.10;4.33;;;;;;;;;;5035047;28;20167;-64
2022/01/06 05:27:10;;;;;;;21.03;4.50;;;;;;;;;;5035223;28;20748;-64
2022/01/06 05:29:37;;;;;;;28.43;3.37;;;;;;;;;;5034840;28;20172;-65
2022/01/06 05:32:03;;;;;;;19.07;3.47;;;;;;;;;;5033333;28;20848;-66
2022/01/06 05:34:29;;;;;;;16.50;4.20;;;;;;;;;;5034593;28;20417;-65
2022/01/06 05:36:55;;;;;;;18.83;4.33;;;;;;;;;;5033302;28;20421;-65
2022/01/06 05:39:21;;;;;;;11.87;3.27;;;;;;;;;;5034635;28;20186;-65
2022/01/06 05:41:47;;;;;;;22.17;4.33;;;;;;;;;;5033322;28;20587;-65
2022/01/06 05:44:13;;;;;;;14.33;4.03;;;;;;;;;;5034627;28;20175;-66
2022/01/06 05:46:39;;;;;;;17.97;3.53;;;;;;;;;;5034359;28;20248;-65
2022/01/06 05:49:05;;;;;;;14.03;3.90;;;;;;;;;;5033210;28;20932;-66
2022/01/06 05:51:31;;;;;;;12.50;3.90;;;;;;;;;;5034496;28;20302;-65
2022/01/06 05:53:57;;;;;;;19.07;3.73;;;;;;;;;;5034560;28;20440;-65
2022/01/06 05:56:23;;;;;;;10.93;3.60;;;;;;;;;;5033205;28;20194;-65
2022/01/06 05:58:49;;;;;;;20.60;4.00;;;;;;;;;;5034321;28;20418;-65
2022/01/06 06:01:15;;;;;;;25.03;4.33;;;;;;;;;;5038722;28;20690;-65
2022/01/06 06:03:41;;;;;;;20.33;3.87;;;;;;;;;;5049631;28;20550;-65
2022/01/06 06:06:07;;;;;;;22.47;4.17;;;;;;;;;;5051547;28;20548;-65
2022/01/06 06:08:33;;;;;;;21.17;4.80;;;;;;;;;;5051396;28;20197;-66
2022/01/06 06:10:59;;;;;;;23.77;4.00;;;;;;;;;;5045071;28;20190;-64
2022/01/06 06:13:25;;;;;;;17.03;4.10;;;;;;;;;;5032854;28;20274;-66
2022/01/06 06:15:51;;;;;;;20.47;4.23;;;;;;;;;;5034429;28;20229;-65
2022/01/06 06:18:17;;;;;;;17.43;5.13;;;;;;;;;;5034070;28;20190;-65
2022/01/06 06:20:43;;;;;;;15.00;4.60;;;;;;;;;;5034261;28;20199;-65
2022/01/06 06:23:09;;;;;;;13.50;4.57;;;;;;;;;;5032743;28;20432;-65
2022/01/06 06:25:35;;;;;;;22.63;4.50;;;;;;;;;;5034094;28;20206;-65
2022/01/06 06:28:01;;;;;;;17.73;4.10;;;;;;;;;;5033739;28;20501;-65
2022/01/06 06:30:27;;;;;;;16.00;4.00;;;;;;;;;;5032363;28;20457;-65
2022/01/06 06:32:53;;;;;;;20.83;4.80;;;;;;;;;;5033869;28;20198;-64
2022/01/06 06:35:19;;;;;;;20.90;4.17;;;;;;;;;;5036704;28;20414;-65
2022/01/06 06:37:45;;;;;;;21.73;6.17;;;;;;;;;;5038327;28;20425;-65
2022/01/06 06:40:12;;;;;;;17.73;5.27;;;;;;;;;;5036814;28;20414;-65
2022/01/06 06:42:38;;;;;;;25.13;4.97;;;;;;;;;;5038167;28;20461;-65
2022/01/06 06:45:04;;;;;;;21.43;5.90;;;;;;;;;;5038296;28;20448;-64
2022/01/06 06:47:32;;;;;;;23.60;5.07;;;;;;;;;;5037665;28;20410;-66
2022/01/06 06:49:59;;;;;;;21.07;4.33;;;;;;;;;;5037663;28;20421;-65
2022/01/06 06:52:26;;;;;;;22.80;4.37;;;;;;;;;;5038636;28;20498;-65
2022/01/06 06:54:54;;;;;;;17.47;4.77;;;;;;;;;;5037764;28;20421;-64
2022/01/06 06:57:20;;;;;;;18.17;4.53;;;;;;;;;;5038966;28;20440;-65
2022/01/06 06:59:46;;;;;;;18.20;4.83;;;;;;;;;;5038876;28;20417;-64
2022/01/06 07:02:12;;;;;;;20.23;5.00;;;;;;;;;;5039001;28;20572;-66
2022/01/06 07:04:38;;;;;;;25.27;5.10;;;;;;;;;;5038672;28;20189;-65
2022/01/06 07:07:04;;;;;;;21.90;4.37;;;;;;;;;;5039050;28;20167;-64
2022/01/06 07:09:30;;;;;;;15.63;4.47;;;;;;;;;;5037745;28;20176;-65
2022/01/06 07:11:55;;;;;;;17.80;4.90;;;;;;;;;;5039282;28;20517;-65
2022/01/06 07:14:21;;;;;;;16.87;4.90;;;;;;;;;;5038903;28;20190;-64
2022/01/06 07:16:47;;;;;;;19.70;5.73;;;;;;;;;;5039736;28;20547;-65
2022/01/06 07:19:13;;;;;;;20.47;5.60;;;;;;;;;;5039296;28;20206;-66
2022/01/06 07:21:39;;;;;;;23.67;5.97;;;;;;;;;;5039463;28;20215;-65
2022/01/06 07:24:05;;;;;;;20.73;5.70;;;;;;;;;;5038191;28;20261;-64
2022/01/06 07:26:32;;;;;;;27.03;5.80;;;;;;;;;;5036821;28;20945;-65
2022/01/06 07:28:57;;;;;;;19.30;5.10;;;;;;;;;;5038081;28;20854;-65
2022/01/06 07:31:23;;;;;;;26.37;7.30;;;;;;;;;;5038090;28;20427;-65
2022/01/06 07:33:50;;;;;;;27.63;5.73;;;;;;;;;;5036894;28;20183;-65
2022/01/06 07:36:16;;;;;;;20.77;6.17;;;;;;;;;;5036826;28;20191;-65
2022/01/06 07:38:42;;;;;;;21.97;6.90;;;;;;;;;;5036266;28;20414;-66
2022/01/06 07:41:08;;;;;;;19.17;5.97;;;;;;;;;;5036423;28;20496;-64
2022/01/06 07:43:34;;;;;;;21.20;5.50;;;;;;;;;;5037732;28;20422;-65
2022/01/06 07:46:00;;;;;;;15.03;5.10;;;;;;;;;;5037104;28;20175;-65
2022/01/06 07:48:36;;;;;;;16.43;5.60;;;;;;;;;;5037144;28;20509;-66
2022/01/06 07:51:02;;;;;;;18.90;5.87;;;;;;;;;;5037307;28;20170;-65
2022/01/06 07:53:28;;;;;;;19.90;6.00;;;;;;;;;;5037676;28;20813;-66
2022/01/06 07:55:54;;;;;;;17.93;5.50;;;;;;;;;;5036100;28;20189;-65
2022/01/06 07:58:21;;;;;;;19.97;5.50;;;;;;;;;;5035880;28;20237;-66
2022/01/06 08:00:47;;;;;;;20.80;6.03;;;;;;;;;;5037004;28;20636;-66
2022/01/06 08:03:13;;;;;;;19.70;8.17;;;;;;;;;;5037130;28;20476;-68
2022/01/06 08:05:39;;;;;;;28.80;6.57;;;;;;;;;;5037239;28;20409;-65
2022/01/06 08:08:05;;;;;;;33.90;12.27;;;;;;;;;;5035597;28;20415;-66
2022/01/06 08:10:31;;;;;;;32.90;10.87;;;;;;;;;;5035553;28;20183;-67
2022/01/06 08:12:57;;;;;;;24.33;7.23;;;;;;;;;;5036553;28;20203;-66
2022/01/06 08:15:23;;;;;;;22.57;5.83;;;;;;;;;;5035783;28;20278;-65
2022/01/06 08:17:49;;;;;;;26.03;6.90;;;;;;;;;;5037153;28;20171;-66
2022/01/06 08:20:14;;;;;;;24.93;7.57;;;;;;;;;;5036717;28;20179;-66
2022/01/06 08:22:40;;;;;;;21.63;6.23;;;;;;;;;;5036807;28;20211;-66
2022/01/06 08:25:07;;;;;;;22.13;8.37;;;;;;;;;;5035325;28;20190;-65
2022/01/06 08:27:33;;;;;;;16.17;7.10;;;;;;;;;;5036497;28;20410;-66
2022/01/06 08:29:59;;;;;;;21.37;7.13;;;;;;;;;;5036980;28;20413;-65
2022/01/06 08:32:25;;;;;;;19.03;7.53;;;;;;;;;;5036336;28;20426;-66
2022/01/06 08:34:51;;;;;;;16.37;7.17;;;;;;;;;;5036450;28;20437;-66
2022/01/06 08:37:17;;;;;;;40.07;15.63;;;;;;;;;;5036229;28;20464;-66
2022/01/06 08:39:43;;;;;;;35.37;16.50;;;;;;;;;;5036514;28;20229;-65
2022/01/06 08:42:11;;;;;;;39.87;17.40;;;;;;;;;;5036476;28;20457;-65
2022/01/06 08:44:39;;;;;;;24.63;9.30;;;;;;;;;;5036286;28;20175;-65
2022/01/06 08:47:05;;;;;;;23.97;8.00;;;;;;;;;;5034940;28;20889;-66
2022/01/06 08:49:31;;;;;;;19.70;7.17;;;;;;;;;;5035554;28;20438;-65
2022/01/06 08:51:57;;;;;;;25.70;7.47;;;;;;;;;;5035177;28;20302;-65
2022/01/06 08:54:23;;;;;;;23.33;7.63;;;;;;;;;;5035549;28;20643;-65
2022/01/06 08:56:49;;;;;;;22.13;7.40;;;;;;;;;;5035268;28;20690;-66
2022/01/06 08:59:15;;;;;;;25.20;8.07;;;;;;;;;;5035105;28;20643;-65
2022/01/06 09:01:41;;;;;;;23.60;9.70;;;;;;;;;;5035349;28;20598;-65
2022/01/06 09:04:06;;;;;;;22.17;8.17;;;;;;;;;;5035234;28;20662;-65
2022/01/06 09:06:33;;;;;;;12.80;7.20;;;;;;;;;;5035430;28;20702;-65
2022/01/06 09:08:59;;;;;;;17.77;6.57;;;;;;;;;;5035271;28;20595;-65
2022/01/06 09:11:25;;;;;;;25.07;7.83;;;;;;;;;;5034596;28;20438;-65
2022/01/06 09:13:50;;;;;;;21.67;8.50;;;;;;;;;;5033743;28;20187;-65
2022/01/06 09:16:16;;;;;;;27.20;8.50;;;;;;;;;;5035025;28;20236;-65
2022/01/06 09:18:42;;;;;;;17.77;8.20;;;;;;;;;;5035028;28;20207;-65
2022/01/06 09:21:09;;;;;;;22.17;8.50;;;;;;;;;;5034774;28;20481;-65
2022/01/06 09:23:36;;;;;;;18.63;7.60;;;;;;;;;;5037632;28;20648;-67
2022/01/06 09:26:02;;;;;;;17.13;6.87;;;;;;;;;;5038072;28;20441;-65
2022/01/06 09:28:28;;;;;;;19.30;7.43;;;;;;;;;;5037832;28;20934;-66
2022/01/06 09:30:55;;;;;;;16.10;6.97;;;;;;;;;;5053490;22;20425;-64
2022/01/06 09:33:21;;;;;;;22.90;7.73;;;;;;;;;;5039318;28;20437;-64
2022/01/06 09:35:48;;;;;;;21.10;6.83;;;;;;;;;;5039247;28;20440;-64
2022/01/06 09:38:14;;;;;;;20.83;7.17;;;;;;;;;;5039407;28;20414;-64
2022/01/06 09:40:42;;;;;;;18.73;6.60;;;;;;;;;;5039236;28;20406;-63
2022/01/06 09:43:08;;;;;;;20.03;6.07;;;;;;;;;;5038634;28;20562;-64
2022/01/06 09:45:37;;;;;;;18.53;6.87;;;;;;;;;;5039070;28;20414;-66
2022/01/06 09:48:04;;;;;;;13.37;6.80;;;;;;;;;;5039097;28;20409;-64
2022/01/06 09:50:30;;;;;;;24.07;6.70;;;;;;;;;;5037664;28;20180;-64
2022/01/06 09:52:56;;;;;;;22.53;6.03;;;;;;;;;;5038341;28;20421;-65
2022/01/06 09:55:23;;;;;;;19.83;6.93;;;;;;;;;;5038716;28;20546;-64
2022/01/06 09:57:54;;;;;;;18.57;8.60;;;;;;;;;;5037414;28;20519;-65
2022/01/06 10:00:21;;;;;;;26.13;10.47;;;;;;;;;;5038631;28;20391;-64
2022/01/06 10:02:52;;;;;;;38.90;13.43;;;;;;;;;;5037441;28;20477;-65
2022/01/06 10:05:17;;;;;;;31.57;12.27;;;;;;;;;;5038857;28;20386;-64
2022/01/06 10:07:43;;;;;;;15.10;6.80;;;;;;;;;;5038640;28;20406;-65
2022/01/06 10:10:14;;;;;;;13.27;5.20;;;;;;;;;;5038333;28;20576;-64
2022/01/06 10:12:41;;;;;;;16.60;6.20;;;;;;;;;;5037146;28;20249;-65
2022/01/06 10:15:20;;;;;;;17.07;6.53;;;;;;;;;;5037937;28;20477;-64
2022/01/06 10:17:46;;;;;;;20.33;6.73;;;;;;;;;;5039448;28;20413;-67
2022/01/06 10:20:14;;;;;;;19.53;6.33;;;;;;;;;;5039982;28;20425;-64
2022/01/06 10:22:44;;;;;;;18.03;6.93;;;;;;;;;;5038817;28;20211;-64
2022/01/06 10:25:10;;;;;;;14.17;5.73;;;;;;;;;;5039631;28;20406;-65
2022/01/06 10:27:38;;;;;;;24.07;8.57;;;;;;;;;;5038630;28;20180;-64
2022/01/06 10:30:07;;;;;;;16.50;7.20;;;;;;;;;;5034316;28;20190;-64
2022/01/06 10:32:33;;;;;;;13.23;6.57;;;;;;;;;;5034796;28;20453;-64
2022/01/06 10:35:02;;;;;;;22.77;7.13;;;;;;;;;;5034417;28;20210;-63
2022/01/06 10:37:30;;;;;;;16.93;7.07;;;;;;;;;;5033277;28;20422;-63
2022/01/06 10:39:58;;;;;;;24.30;8.63;;;;;;;;;;5034793;28;20605;-64
2022/01/06 10:42:26;;;;;;;27.57;10.97;;;;;;;;;;5034018;28;20462;-64
2022/01/06 10:44:54;;;;;;;18.47;6.53;;;;;;;;;;5034139;28;20496;-64
2022/01/06 10:47:30;;;;;;;12.43;5.30;;;;;;;;;;5032674;28;20217;-64
2022/01/06 10:50:07;;;;;;;10.63;5.27;;;;;;;;;;5032954;28;20236;-65
2022/01/06 10:52:33;;;;;;;17.60;5.07;;;;;;;;;;5034170;28;20194;-64
2022/01/06 10:55:09;;;;;;;14.37;5.40;;;;;;;;;;5033821;28;20694;-66
2022/01/06 10:57:35;;;;;;;13.93;5.80;;;;;;;;;;5033941;28;20602;-64
2022/01/06 11:00:01;;;;;;;16.53;5.53;;;;;;;;;;5032520;28;20187;-65
2022/01/06 11:02:27;;;;;;;14.10;4.97;;;;;;;;;;5034202;28;20211;-64
2022/01/06 11:04:53;;;;;;;12.67;5.53;;;;;;;;;;5034106;28;20171;-64
2022/01/06 11:07:18;;;;;;;14.03;4.80;;;;;;;;;;5033631;28;20187;-64
2022/01/06 11:09:48;;;;;;;16.10;5.23;;;;;;;;;;5032978;28;20179;-63
2022/01/06 11:12:26;;;;;;;12.40;5.17;;;;;;;;;;5034323;28;20659;-63
2022/01/06 11:14:53;;;;;;;15.97;5.33;;;;;;;;;;5033969;28;20181;-64
2022/01/06 11:17:21;;;;;;;13.73;5.57;;;;;;;;;;5033039;28;20659;-64
2022/01/06 11:19:49;;;;;;;12.70;6.37;;;;;;;;;;5035129;28;20175;-64
2022/01/06 11:22:15;;;;;;;12.00;4.57;;;;;;;;;;5037536;28;20585;-65
2022/01/06 11:24:52;;;;;;;16.53;4.90;;;;;;;;;;5038560;28;20183;-64
2022/01/06 11:27:18;;;;;;;17.23;6.57;;;;;;;;;;5035949;28;20193;-66
2022/01/06 11:29:44;;;;;;;13.00;6.50;;;;;;;;;;5037232;28;20650;-67
2022/01/06 11:32:21;;;;;;;17.67;5.97;;;;;;;;;;5036249;28;20219;-63
2022/01/06 11:34:50;;;;;;;9.70;4.57;;;;;;;;;;5037487;28;20174;-65
2022/01/06 11:37:16;;;;;;;13.87;5.33;;;;;;;;;;5036975;28;20721;-66
2022/01/06 11:39:42;;;;;;;12.80;5.03;;;;;;;;;;5036980;28;20179;-66
2022/01/06 11:42:13;;;;;;;13.80;5.23;;;;;;;;;;5035676;28;20308;-65
2022/01/06 11:44:47;;;;;;;11.83;5.70;;;;;;;;;;5035830;28;20187;-64
2022/01/06 11:47:13;;;;;;;14.47;5.83;;;;;;;;;;5037374;28;20167;-63
2022/01/06 11:49:42;;;;;;;17.30;6.13;;;;;;;;;;5037295;28;20213;-63
2022/01/06 11:52:10;;;;;;;16.17;6.00;;;;;;;;;;5036000;28;20257;-63
2022/01/06 11:55:05;;;;;;;18.20;5.37;;;;;;;;;;5037576;28;20179;-64
2022/01/06 11:57:31;;;;;;;10.43;4.90;;;;;;;;;;5015878;28;20201;-64
2022/01/06 11:59:58;;;;;;;14.80;5.60;;;;;;;;;;5037246;28;20182;-63
2022/01/06 12:02:24;;;;;;;16.17;6.33;;;;;;;;;;5036741;28;20210;-63
2022/01/06 12:04:57;;;;;;;12.10;5.13;;;;;;;;;;5036923;28;20171;-64
2022/01/06 12:07:23;;;;;;;14.63;6.13;;;;;;;;;;5035658;28;20206;-64
2022/01/06 12:10:09;;;;;;;17.87;6.13;;;;;;;;;;5036432;28;20234;-63
2022/01/06 12:12:37;;;;;;;13.27;6.03;;;;;;;;;;5036667;28;20195;-62
2022/01/06 12:15:13;;;;;;;16.27;6.10;;;;;;;;;;5036259;28;20639;-64
2022/01/06 12:17:44;;;;;;;16.97;6.90;;;;;;;;;;5036784;28;20183;-64
2022/01/06 12:20:10;;;;;;;21.27;7.93;;;;;;;;;;5036480;28;20167;-63
2022/01/06 12:22:36;;;;;;;20.93;7.40;;;;;;;;;;5036179;28;20697;-63
2022/01/06 12:25:04;;;;;;;21.83;6.70;;;;;;;;;;5036670;28;20179;-64
2022/01/06 12:27:31;;;;;;;31.27;16.07;;;;;;;;;;5036204;28;20538;-63
2022/01/06 12:29:57;;;;;;;18.30;8.60;;;;;;;;;;5034554;28;20179;-63
2022/01/06 12:32:23;;;;;;;17.63;6.87;;;;;;;;;;5035080;28;20215;-63
2022/01/06 12:34:55;;;;;;;12.27;5.93;;;;;;;;;;5036010;28;20206;-63
2022/01/06 12:37:25;;;;;;;20.37;7.17;;;;;;;;;;5035668;28;20714;-64
2022/01/06 12:39:51;;;;;;;17.87;8.10;;;;;;;;;;5036393;28;20592;-64
2022/01/06 12:42:17;;;;;;;17.70;8.03;;;;;;;;;;5034956;28;20207;-63
2022/01/06 12:44:43;;;;;;;18.23;8.20;;;;;;;;;;5034479;28;20535;-64
2022/01/06 12:47:09;;;;;;;16.43;8.00;;;;;;;;;;5035662;28;20183;-64
2022/01/06 12:49:35;;;;;;;19.30;8.37;;;;;;;;;;5035887;28;20183;-64
2022/01/06 12:52:02;;;;;;;20.23;8.90;;;;;;;;;;5035427;28;20229;-64
2022/01/06 12:54:30;;;;;;;18.37;7.37;;;;;;;;;;5035454;28;20182;-64
2022/01/06 12:56:57;;;;;;;16.70;7.97;;;;;;;;;;5035563;28;20172;-64
2022/01/06 12:59:33;;;;;;;32.40;15.27;;;;;;;;;;5034958;28;20246;-65
2022/01/06 13:02:00;;;;;;;21.10;7.83;;;;;;;;;;5033958;28;20271;-64
2022/01/06 13:04:30;;;;;;;15.37;7.63;;;;;;;;;;5035523;28;20249;-63
2022/01/06 13:06:57;;;;;;;22.23;8.20;;;;;;;;;;5035551;28;20167;-64
2022/01/06 13:09:30;;;;;;;20.43;8.53;;;;;;;;;;5033983;28;20179;-63
2022/01/06 13:11:57;;;;;;;20.50;9.00;;;;;;;;;;5036145;28;20199;-63
2022/01/06 13:14:32;;;;;;;16.87;7.97;;;;;;;;;;5036023;28;20184;-63
2022/01/06 13:17:06;;;;;;;21.70;7.77;;;;;;;;;;5036226;28;20179;-62
2022/01/06 13:19:32;;;;;;;22.73;8.83;;;;;;;;;;5035736;28;20175;-64
2022/01/06 13:22:03;;;;;;;19.47;7.80;;;;;;;;;;5035946;28;20249;-63
2022/01/06 13:24:35;;;;;;;19.53;7.67;;;;;;;;;;5036007;28;20736;-65
2022/01/06 13:27:03;;;;;;;18.73;7.80;;;;;;;;;;5035813;28;20171;-64
2022/01/06 13:29:34;;;;;;;15.80;7.10;;;;;;;;;;5035024;28;20213;-63
2022/01/06 13:32:06;;;;;;;19.30;7.90;;;;;;;;;;5035014;28;20268;-64
2022/01/06 13:34:33;;;;;;;21.00;8.77;;;;;;;;;;5035610;28;20185;-64
2022/01/06 13:37:02;;;;;;;23.03;9.00;;;;;;;;;;5035556;28;20555;-63
2022/01/06 13:39:35;;;;;;;19.83;8.00;;;;;;;;;;5034942;28;20175;-64
2022/01/06 13:42:01;;;;;;;19.43;8.57;;;;;;;;;;5034213;28;20634;-64
2022/01/06 13:44:27;;;;;;;20.97;9.83;;;;;;;;;;5033423;28;20178;-63
2022/01/06 13:47:08;;;;;;;21.77;10.00;;;;;;;;;;5033454;28;20555;-65
2022/01/06 13:52:21;;;;;;;20.47;10.47;;;;;;;;;;5034888;28;20217;-64
2022/01/06 13:54:47;;;;;;;20.30;10.90;;;;;;;;;;5034839;28;20186;-64
2022/01/06 13:57:13;;;;;;;21.10;9.90;;;;;;;;;;5033984;28;20190;-64
2022/01/06 13:59:43;;;;;;;22.17;9.50;;;;;;;;;;5034694;28;20553;-64
2022/01/06 14:02:13;;;;;;;19.70;10.53;;;;;;;;;;5034161;28;20297;-64
2022/01/06 14:04:40;;;;;;;25.60;10.97;;;;;;;;;;5034287;28;20317;-64
2022/01/06 14:07:06;;;;;;;26.30;10.87;;;;;;;;;;5034863;28;20175;-64
2022/01/06 14:09:33;;;;;;;30.77;12.33;;;;;;;;;;5034470;28;20171;-63
2022/01/06 14:11:59;;;;;;;21.17;10.77;;;;;;;;;;5033208;28;20211;-63
2022/01/06 14:14:25;;;;;;;19.00;10.67;;;;;;;;;;5034277;28;20179;-65
2022/01/06 14:16:52;;;;;;;16.77;9.30;;;;;;;;;;5034129;28;20193;-63
2022/01/06 14:19:19;;;;;;;25.47;10.43;;;;;;;;;;5034529;28;20183;-63
2022/01/06 14:21:45;;;;;;;23.43;10.80;;;;;;;;;;5032696;28;20215;-63
2022/01/06 14:24:11;;;;;;;28.07;11.37;;;;;;;;;;5033913;28;20174;-65
2022/01/06 14:26:37;;;;;;;23.77;10.03;;;;;;;;;;5033980;28;20174;-63
2022/01/06 14:29:04;;;;;;;18.60;9.73;;;;;;;;;;5034416;28;20171;-64
2022/01/06 14:31:30;;;;;;;23.97;9.37;;;;;;;;;;5034293;28;20218;-64
2022/01/06 14:33:56;;;;;;;24.00;9.60;;;;;;;;;;5034660;28;20183;-64